sensor_id;sensor_type;location;lat;lon;timestamp;temperature;humidity
13600;DHT22;6871;51.34740610;4.31323160;2023-03-01T00:00:17;15.30;56.50
13600;DHT22;6871;51.34740610;4.31323160;2023-03-01T00:02:46;15.30;56.50
13600;DHT22;6871;51.34740610;4.31323160;2023-03-01T00:05:16;15.30;56.60
13600;DHT22;6871;51.34740610;4.31323160;2023-03-01T00:07:45;15.30;56.60
13600;DHT22;6871;51.34740610;4.31323160;2023-03-01T00:10:15;15.30;56.50
13600;DHT22;6871;51.34740610;4.31323160;2023-03-01T00:12:44;15.30;56.50
13600;DHT22;6871;51.34740610;4.31323160;2023-03-01T00:15:13;15.30;56.50
13600;DHT22;6871;51.34740610;4.31323160;2023-03-01T00:17:43;15.30;56.70
13600;DHT22;6871;51.34740610;4.31323160;2023-03-01T00:20:13;15.30;56.70
13600;DHT22;6871;51.34740610;4.31323160;2023-03-01T00:22:42;15.30;56.60
13600;DHT22;6871;51.34740610;4.31323160;2023-03-01T00:25:11;15.30;56.50
13600;DHT22;6871;51.34740610;4.31323160;2023-03-01T00:27:41;15.30;56.50
13600;DHT22;6871;51.34740610;4.31323160;2023-03-01T00:30:11;15.30;56.60
13600;DHT22;6871;51.34740610;4.31323160;2023-03-01T00:32:41;15.30;56.60
13600;DHT22;6871;51.34740610;4.31323160;2023-03-01T00:35:11;15.30;56.60
13600;DHT22;6871;51.34740610;4.31323160;2023-03-01T00:37:40;15.30;56.60
13600;DHT22;6871;51.34740610;4.31323160;2023-03-01T00:40:12;15.30;56.60
13600;DHT22;6871;51.34740610;4.31323160;2023-03-01T00:42:43;15.30;56.60
13600;DHT22;6871;51.34740610;4.31323160;2023-03-01T00:45:12;15.30;56.60
13600;DHT22;6871;51.34740610;4.31323160;2023-03-01T00:47:41;15.20;56.60
13600;DHT22;6871;51.34740610;4.31323160;2023-03-01T00:50:12;15.20;56.50
13600;DHT22;6871;51.34740610;4.31323160;2023-03-01T00:52:41;15.20;56.60
13600;DHT22;6871;51.34740610;4.31323160;2023-03-01T00:55:11;15.20;56.60
13600;DHT22;6871;51.34740610;4.31323160;2023-03-01T00:57:41;15.20;56.50
13600;DHT22;6871;51.34740610;4.31323160;2023-03-01T01:00:12;15.20;56.60
13600;DHT22;6871;51.34740610;4.31323160;2023-03-01T01:02:42;15.20;56.70
13600;DHT22;6871;51.34740610;4.31323160;2023-03-01T01:05:12;15.20;56.60
13600;DHT22;6871;51.34740610;4.31323160;2023-03-01T01:07:42;15.20;56.60
13600;DHT22;6871;51.34740610;4.31323160;2023-03-01T01:10:12;15.30;56.70
13600;DHT22;6871;51.34740610;4.31323160;2023-03-01T01:12:43;15.30;56.70
13600;DHT22;6871;51.34740610;4.31323160;2023-03-01T01:15:14;15.30;56.60
13600;DHT22;6871;51.34740610;4.31323160;2023-03-01T01:17:44;15.30;56.50
13600;DHT22;6871;51.34740610;4.31323160;2023-03-01T01:20:13;15.30;56.50
13600;DHT22;6871;51.34740610;4.31323160;2023-03-01T01:22:43;15.30;56.50
13600;DHT22;6871;51.34740610;4.31323160;2023-03-01T01:25:12;15.30;56.50
13600;DHT22;6871;51.34740610;4.31323160;2023-03-01T01:27:41;15.30;56.60
13600;DHT22;6871;51.34740610;4.31323160;2023-03-01T01:30:12;15.30;56.70
13600;DHT22;6871;51.34740610;4.31323160;2023-03-01T01:32:42;15.30;56.70
13600;DHT22;6871;51.34740610;4.31323160;2023-03-01T01:35:11;15.30;56.60
13600;DHT22;6871;51.34740610;4.31323160;2023-03-01T01:37:40;15.30;56.60
13600;DHT22;6871;51.34740610;4.31323160;2023-03-01T01:40:12;15.20;56.30
13600;DHT22;6871;51.34740610;4.31323160;2023-03-01T01:42:42;15.20;56.70
13600;DHT22;6871;51.34740610;4.31323160;2023-03-01T01:48:17;15.20;56.70
13600;DHT22;6871;51.34740610;4.31323160;2023-03-01T01:50:51;15.20;56.80
13600;DHT22;6871;51.34740610;4.31323160;2023-03-01T01:53:21;15.20;56.70
13600;DHT22;6871;51.34740610;4.31323160;2023-03-01T01:55:54;15.20;56.70
13600;DHT22;6871;51.34740610;4.31323160;2023-03-01T01:58:26;15.20;56.70
13600;DHT22;6871;51.34740610;4.31323160;2023-03-01T02:00:56;15.20;56.80
13600;DHT22;6871;51.34740610;4.31323160;2023-03-01T02:03:28;15.20;56.90
13600;DHT22;6871;51.34740610;4.31323160;2023-03-01T02:06:03;15.20;56.90
13600;DHT22;6871;51.34740610;4.31323160;2023-03-01T02:08:35;15.20;56.80
13600;DHT22;6871;51.34740610;4.31323160;2023-03-01T02:11:05;15.10;56.70
13600;DHT22;6871;51.34740610;4.31323160;2023-03-01T02:13:35;15.10;56.70
13600;DHT22;6871;51.34740610;4.31323160;2023-03-01T02:16:06;15.10;57.40
13600;DHT22;6871;51.34740610;4.31323160;2023-03-01T02:18:38;15.10;56.80
13600;DHT22;6871;51.34740610;4.31323160;2023-03-01T02:21:16;15.20;56.90
13600;DHT22;6871;51.34740610;4.31323160;2023-03-01T02:23:44;15.20;56.80
13600;DHT22;6871;51.34740610;4.31323160;2023-03-01T02:26:17;15.20;56.80
13600;DHT22;6871;51.34740610;4.31323160;2023-03-01T02:28:46;15.20;56.70
13600;DHT22;6871;51.34740610;4.31323160;2023-03-01T02:31:18;15.20;56.70
13600;DHT22;6871;51.34740610;4.31323160;2023-03-01T02:34:07;15.20;56.80
13600;DHT22;6871;51.34740610;4.31323160;2023-03-01T02:36:39;15.20;56.70
13600;DHT22;6871;51.34740610;4.31323160;2023-03-01T02:39:12;15.20;56.80
13600;DHT22;6871;51.34740610;4.31323160;2023-03-01T02:41:45;15.20;56.80
13600;DHT22;6871;51.34740610;4.31323160;2023-03-01T02:44:16;15.20;56.70
13600;DHT22;6871;51.34740610;4.31323160;2023-03-01T02:46:47;15.20;56.70
13600;DHT22;6871;51.34740610;4.31323160;2023-03-01T02:49:21;15.20;56.90
13600;DHT22;6871;51.34740610;4.31323160;2023-03-01T02:52:04;15.20;56.70
13600;DHT22;6871;51.34740610;4.31323160;2023-03-01T02:54:38;15.20;56.80
13600;DHT22;6871;51.34740610;4.31323160;2023-03-01T02:57:08;15.10;56.80
13600;DHT22;6871;51.34740610;4.31323160;2023-03-01T02:59:37;15.10;56.80
13600;DHT22;6871;51.34740610;4.31323160;2023-03-01T03:02:16;15.10;56.80
13600;DHT22;6871;51.34740610;4.31323160;2023-03-01T03:04:38;15.10;56.70
13600;DHT22;6871;51.34740610;4.31323160;2023-03-01T03:07:07;15.10;56.60
13600;DHT22;6871;51.34740610;4.31323160;2023-03-01T03:09:37;15.10;56.70
13600;DHT22;6871;51.34740610;4.31323160;2023-03-01T03:12:06;15.10;56.60
13600;DHT22;6871;51.34740610;4.31323160;2023-03-01T03:14:36;15.10;56.80
13600;DHT22;6871;51.34740610;4.31323160;2023-03-01T03:17:06;15.10;56.80
13600;DHT22;6871;51.34740610;4.31323160;2023-03-01T03:19:35;15.10;56.90
13600;DHT22;6871;51.34740610;4.31323160;2023-03-01T03:22:04;15.10;56.80
13600;DHT22;6871;51.34740610;4.31323160;2023-03-01T03:24:33;15.10;56.80
13600;DHT22;6871;51.34740610;4.31323160;2023-03-01T03:27:05;15.10;56.70
13600;DHT22;6871;51.34740610;4.31323160;2023-03-01T03:29:34;15.10;56.70
13600;DHT22;6871;51.34740610;4.31323160;2023-03-01T03:32:04;15.20;56.80
13600;DHT22;6871;51.34740610;4.31323160;2023-03-01T03:34:33;15.20;56.80
13600;DHT22;6871;51.34740610;4.31323160;2023-03-01T03:37:03;15.20;56.60
13600;DHT22;6871;51.34740610;4.31323160;2023-03-01T03:39:33;15.10;56.60
13600;DHT22;6871;51.34740610;4.31323160;2023-03-01T03:42:03;15.10;56.60
13600;DHT22;6871;51.34740610;4.31323160;2023-03-01T03:44:32;15.10;56.50
13600;DHT22;6871;51.34740610;4.31323160;2023-03-01T03:47:01;15.10;56.60
13600;DHT22;6871;51.34740610;4.31323160;2023-03-01T03:49:31;15.10;56.60
13600;DHT22;6871;51.34740610;4.31323160;2023-03-01T03:52:00;15.10;56.60
13600;DHT22;6871;51.34740610;4.31323160;2023-03-01T03:54:30;15.10;56.60
13600;DHT22;6871;51.34740610;4.31323160;2023-03-01T03:56:59;15.10;56.50
13600;DHT22;6871;51.34740610;4.31323160;2023-03-01T03:59:29;15.10;56.60
13600;DHT22;6871;51.34740610;4.31323160;2023-03-01T04:01:58;15.10;56.50
13600;DHT22;6871;51.34740610;4.31323160;2023-03-01T04:04:28;15.10;56.50
13600;DHT22;6871;51.34740610;4.31323160;2023-03-01T04:06:57;15.10;56.50
13600;DHT22;6871;51.34740610;4.31323160;2023-03-01T04:09:26;15.10;56.60
13600;DHT22;6871;51.34740610;4.31323160;2023-03-01T04:11:57;15.00;56.60
13600;DHT22;6871;51.34740610;4.31323160;2023-03-01T04:14:27;15.00;56.60
13600;DHT22;6871;51.34740610;4.31323160;2023-03-01T04:16:56;15.10;56.70
13600;DHT22;6871;51.34740610;4.31323160;2023-03-01T04:19:25;15.10;56.60
13600;DHT22;6871;51.34740610;4.31323160;2023-03-01T04:21:55;15.10;56.60
13600;DHT22;6871;51.34740610;4.31323160;2023-03-01T04:24:24;15.10;56.60
13600;DHT22;6871;51.34740610;4.31323160;2023-03-01T04:26:53;15.10;56.60
13600;DHT22;6871;51.34740610;4.31323160;2023-03-01T04:29:22;15.10;56.60
13600;DHT22;6871;51.34740610;4.31323160;2023-03-01T04:31:52;15.10;56.50
13600;DHT22;6871;51.34740610;4.31323160;2023-03-01T04:34:22;15.10;56.50
13600;DHT22;6871;51.34740610;4.31323160;2023-03-01T04:36:51;15.10;56.50
13600;DHT22;6871;51.34740610;4.31323160;2023-03-01T04:39:20;15.10;56.50
13600;DHT22;6871;51.34740610;4.31323160;2023-03-01T04:41:50;15.10;56.50
13600;DHT22;6871;51.34740610;4.31323160;2023-03-01T04:44:19;15.10;56.60
13600;DHT22;6871;51.34740610;4.31323160;2023-03-01T04:46:50;15.10;56.60
13600;DHT22;6871;51.34740610;4.31323160;2023-03-01T04:49:19;15.10;56.50
13600;DHT22;6871;51.34740610;4.31323160;2023-03-01T04:51:48;15.10;56.40
13600;DHT22;6871;51.34740610;4.31323160;2023-03-01T04:54:18;15.10;56.50
13600;DHT22;6871;51.34740610;4.31323160;2023-03-01T04:56:47;15.10;56.50
13600;DHT22;6871;51.34740610;4.31323160;2023-03-01T04:59:16;15.10;56.50
13600;DHT22;6871;51.34740610;4.31323160;2023-03-01T05:01:46;15.00;56.40
13600;DHT22;6871;51.34740610;4.31323160;2023-03-01T05:04:15;15.00;56.50
13600;DHT22;6871;51.34740610;4.31323160;2023-03-01T05:06:44;15.00;56.50
13600;DHT22;6871;51.34740610;4.31323160;2023-03-01T05:09:14;15.00;56.00
13600;DHT22;6871;51.34740610;4.31323160;2023-03-01T05:11:43;15.10;56.50
13600;DHT22;6871;51.34740610;4.31323160;2023-03-01T05:14:13;15.10;56.40
13600;DHT22;6871;51.34740610;4.31323160;2023-03-01T05:16:43;15.10;56.40
13600;DHT22;6871;51.34740610;4.31323160;2023-03-01T05:19:12;15.10;56.50
13600;DHT22;6871;51.34740610;4.31323160;2023-03-01T05:21:43;15.10;56.40
13600;DHT22;6871;51.34740610;4.31323160;2023-03-01T05:24:33;15.10;56.30
13600;DHT22;6871;51.34740610;4.31323160;2023-03-01T05:27:04;15.10;56.30
13600;DHT22;6871;51.34740610;4.31323160;2023-03-01T05:29:33;15.00;56.40
13600;DHT22;6871;51.34740610;4.31323160;2023-03-01T05:32:04;15.00;56.30
13600;DHT22;6871;51.34740610;4.31323160;2023-03-01T05:34:35;15.00;56.20
13600;DHT22;6871;51.34740610;4.31323160;2023-03-01T05:37:05;15.00;56.30
13600;DHT22;6871;51.34740610;4.31323160;2023-03-01T05:39:35;15.00;56.40
13600;DHT22;6871;51.34740610;4.31323160;2023-03-01T05:42:05;15.00;56.30
13600;DHT22;6871;51.34740610;4.31323160;2023-03-01T05:44:36;15.00;56.30
13600;DHT22;6871;51.34740610;4.31323160;2023-03-01T05:47:06;15.00;56.30
13600;DHT22;6871;51.34740610;4.31323160;2023-03-01T05:49:35;15.00;56.30
13600;DHT22;6871;51.34740610;4.31323160;2023-03-01T05:52:04;15.00;56.30
13600;DHT22;6871;51.34740610;4.31323160;2023-03-01T05:54:35;15.00;56.30
13600;DHT22;6871;51.34740610;4.31323160;2023-03-01T05:57:04;15.00;56.30
13600;DHT22;6871;51.34740610;4.31323160;2023-03-01T05:59:33;15.00;56.30
13600;DHT22;6871;51.34740610;4.31323160;2023-03-01T06:02:03;15.00;56.20
13600;DHT22;6871;51.34740610;4.31323160;2023-03-01T06:04:32;15.00;56.10
13600;DHT22;6871;51.34740610;4.31323160;2023-03-01T06:07:01;15.00;56.10
13600;DHT22;6871;51.34740610;4.31323160;2023-03-01T06:09:31;14.90;56.10
13600;DHT22;6871;51.34740610;4.31323160;2023-03-01T06:12:00;14.90;56.10
13600;DHT22;6871;51.34740610;4.31323160;2023-03-01T06:14:30;14.90;56.40
13600;DHT22;6871;51.34740610;4.31323160;2023-03-01T06:17:00;14.90;56.30
13600;DHT22;6871;51.34740610;4.31323160;2023-03-01T06:19:29;14.90;56.20
13600;DHT22;6871;51.34740610;4.31323160;2023-03-01T06:21:58;14.90;56.10
13600;DHT22;6871;51.34740610;4.31323160;2023-03-01T06:24:28;15.00;55.70
13600;DHT22;6871;51.34740610;4.31323160;2023-03-01T06:26:57;15.00;56.10
13600;DHT22;6871;51.34740610;4.31323160;2023-03-01T06:29:26;15.00;56.10
13600;DHT22;6871;51.34740610;4.31323160;2023-03-01T06:31:56;15.00;56.20
13600;DHT22;6871;51.34740610;4.31323160;2023-03-01T06:34:26;14.90;56.00
13600;DHT22;6871;51.34740610;4.31323160;2023-03-01T06:36:55;15.00;56.00
13600;DHT22;6871;51.34740610;4.31323160;2023-03-01T06:39:24;15.00;55.90
13600;DHT22;6871;51.34740610;4.31323160;2023-03-01T06:41:55;15.00;55.90
13600;DHT22;6871;51.34740610;4.31323160;2023-03-01T06:44:25;15.00;55.90
13600;DHT22;6871;51.34740610;4.31323160;2023-03-01T06:46:54;15.00;55.90
13600;DHT22;6871;51.34740610;4.31323160;2023-03-01T06:49:24;15.00;55.90
13600;DHT22;6871;51.34740610;4.31323160;2023-03-01T06:51:53;15.00;55.80
13600;DHT22;6871;51.34740610;4.31323160;2023-03-01T06:54:22;14.90;55.90
13600;DHT22;6871;51.34740610;4.31323160;2023-03-01T06:56:52;14.90;55.90
13600;DHT22;6871;51.34740610;4.31323160;2023-03-01T06:59:21;14.90;56.10
13600;DHT22;6871;51.34740610;4.31323160;2023-03-01T07:01:50;15.00;55.90
13600;DHT22;6871;51.34740610;4.31323160;2023-03-01T07:04:20;15.00;55.90
13600;DHT22;6871;51.34740610;4.31323160;2023-03-01T07:06:49;15.00;55.80
13600;DHT22;6871;51.34740610;4.31323160;2023-03-01T07:09:20;15.00;55.80
13600;DHT22;6871;51.34740610;4.31323160;2023-03-01T07:11:49;15.00;56.10
13600;DHT22;6871;51.34740610;4.31323160;2023-03-01T07:14:19;15.00;55.90
13600;DHT22;6871;51.34740610;4.31323160;2023-03-01T07:16:48;15.00;56.80
13600;DHT22;6871;51.34740610;4.31323160;2023-03-01T07:19:18;15.00;56.40
13600;DHT22;6871;51.34740610;4.31323160;2023-03-01T07:21:47;15.00;56.10
13600;DHT22;6871;51.34740610;4.31323160;2023-03-01T07:24:16;15.00;55.80
13600;DHT22;6871;51.34740610;4.31323160;2023-03-01T07:26:48;15.10;55.80
13600;DHT22;6871;51.34740610;4.31323160;2023-03-01T07:29:18;15.10;55.70
13600;DHT22;6871;51.34740610;4.31323160;2023-03-01T07:31:47;15.10;55.70
13600;DHT22;6871;51.34740610;4.31323160;2023-03-01T07:34:17;15.20;55.60
13600;DHT22;6871;51.34740610;4.31323160;2023-03-01T07:36:46;15.20;55.70
13600;DHT22;6871;51.34740610;4.31323160;2023-03-01T07:39:15;15.20;55.70
13600;DHT22;6871;51.34740610;4.31323160;2023-03-01T07:41:45;15.20;55.90
13600;DHT22;6871;51.34740610;4.31323160;2023-03-01T07:44:14;15.20;55.80
13600;DHT22;6871;51.34740610;4.31323160;2023-03-01T07:46:45;15.20;55.80
13600;DHT22;6871;51.34740610;4.31323160;2023-03-01T07:49:14;15.20;55.80
13600;DHT22;6871;51.34740610;4.31323160;2023-03-01T07:51:43;15.30;55.70
13600;DHT22;6871;51.34740610;4.31323160;2023-03-01T07:54:13;15.30;55.70
13600;DHT22;6871;51.34740610;4.31323160;2023-03-01T07:56:43;15.30;55.70
13600;DHT22;6871;51.34740610;4.31323160;2023-03-01T07:59:13;15.40;55.70
13600;DHT22;6871;51.34740610;4.31323160;2023-03-01T08:01:42;15.40;55.60
13600;DHT22;6871;51.34740610;4.31323160;2023-03-01T08:04:11;15.40;55.60
13600;DHT22;6871;51.34740610;4.31323160;2023-03-01T08:06:40;15.50;55.60
13600;DHT22;6871;51.34740610;4.31323160;2023-03-01T08:09:10;15.50;55.60
13600;DHT22;6871;51.34740610;4.31323160;2023-03-01T08:11:39;15.50;55.60
13600;DHT22;6871;51.34740610;4.31323160;2023-03-01T08:14:08;15.50;55.60
13600;DHT22;6871;51.34740610;4.31323160;2023-03-01T08:16:39;15.50;55.70
13600;DHT22;6871;51.34740610;4.31323160;2023-03-01T08:19:10;15.50;55.80
13600;DHT22;6871;51.34740610;4.31323160;2023-03-01T08:21:39;15.50;55.90
13600;DHT22;6871;51.34740610;4.31323160;2023-03-01T08:24:11;15.50;56.00
13600;DHT22;6871;51.34740610;4.31323160;2023-03-01T08:26:40;15.50;56.10
13600;DHT22;6871;51.34740610;4.31323160;2023-03-01T08:29:09;15.50;56.30
13600;DHT22;6871;51.34740610;4.31323160;2023-03-01T08:31:40;15.50;56.80
13600;DHT22;6871;51.34740610;4.31323160;2023-03-01T08:34:11;15.60;56.30
13600;DHT22;6871;51.34740610;4.31323160;2023-03-01T08:36:43;15.60;56.30
13600;DHT22;6871;51.34740610;4.31323160;2023-03-01T08:39:14;15.60;56.50
13600;DHT22;6871;51.34740610;4.31323160;2023-03-01T08:41:46;15.60;56.50
13600;DHT22;6871;51.34740610;4.31323160;2023-03-01T08:44:17;15.60;56.50
13600;DHT22;6871;51.34740610;4.31323160;2023-03-01T08:46:46;15.60;56.50
13600;DHT22;6871;51.34740610;4.31323160;2023-03-01T08:49:18;15.70;56.60
13600;DHT22;6871;51.34740610;4.31323160;2023-03-01T08:51:48;15.70;56.40
13600;DHT22;6871;51.34740610;4.31323160;2023-03-01T08:54:19;15.70;56.50
13600;DHT22;6871;51.34740610;4.31323160;2023-03-01T08:56:49;15.70;56.50
13600;DHT22;6871;51.34740610;4.31323160;2023-03-01T08:59:19;15.70;56.50
13600;DHT22;6871;51.34740610;4.31323160;2023-03-01T09:01:48;15.70;56.50
13600;DHT22;6871;51.34740610;4.31323160;2023-03-01T09:04:18;15.70;56.30
13600;DHT22;6871;51.34740610;4.31323160;2023-03-01T09:06:47;15.70;56.70
13600;DHT22;6871;51.34740610;4.31323160;2023-03-01T09:09:17;15.70;56.80
13600;DHT22;6871;51.34740610;4.31323160;2023-03-01T09:11:47;15.80;56.90
13600;DHT22;6871;51.34740610;4.31323160;2023-03-01T09:14:19;15.80;56.80
13600;DHT22;6871;51.34740610;4.31323160;2023-03-01T09:16:48;15.90;56.70
13600;DHT22;6871;51.34740610;4.31323160;2023-03-01T09:19:18;15.90;56.70
13600;DHT22;6871;51.34740610;4.31323160;2023-03-01T09:21:47;15.90;56.30
13600;DHT22;6871;51.34740610;4.31323160;2023-03-01T09:24:22;16.00;56.60
13600;DHT22;6871;51.34740610;4.31323160;2023-03-01T09:26:54;16.00;56.50
13600;DHT22;6871;51.34740610;4.31323160;2023-03-01T09:29:24;16.00;56.60
13600;DHT22;6871;51.34740610;4.31323160;2023-03-01T09:31:53;16.10;56.80
13600;DHT22;6871;51.34740610;4.31323160;2023-03-01T09:34:23;16.10;56.60
13600;DHT22;6871;51.34740610;4.31323160;2023-03-01T09:36:52;16.10;56.80
13600;DHT22;6871;51.34740610;4.31323160;2023-03-01T09:39:22;16.20;56.80
13600;DHT22;6871;51.34740610;4.31323160;2023-03-01T09:41:56;16.20;56.40
13600;DHT22;6871;51.34740610;4.31323160;2023-03-01T09:44:32;16.20;56.50
13600;DHT22;6871;51.34740610;4.31323160;2023-03-01T09:47:03;16.30;56.60
13600;DHT22;6871;51.34740610;4.31323160;2023-03-01T09:49:35;16.30;56.30
13600;DHT22;6871;51.34740610;4.31323160;2023-03-01T09:52:23;16.30;56.20
13600;DHT22;6871;51.34740610;4.31323160;2023-03-01T09:54:54;16.30;56.10
13600;DHT22;6871;51.34740610;4.31323160;2023-03-01T09:57:30;16.40;56.10
13600;DHT22;6871;51.34740610;4.31323160;2023-03-01T10:00:12;16.40;56.10
13600;DHT22;6871;51.34740610;4.31323160;2023-03-01T10:02:45;16.40;56.40
13600;DHT22;6871;51.34740610;4.31323160;2023-03-01T10:05:25;16.50;56.50
13600;DHT22;6871;51.34740610;4.31323160;2023-03-01T10:08:01;16.50;56.40
13600;DHT22;6871;51.34740610;4.31323160;2023-03-01T10:10:33;16.60;56.50
13600;DHT22;6871;51.34740610;4.31323160;2023-03-01T10:13:07;16.60;56.40
13600;DHT22;6871;51.34740610;4.31323160;2023-03-01T10:15:38;16.60;56.30
13600;DHT22;6871;51.34740610;4.31323160;2023-03-01T10:18:11;16.70;56.40
13600;DHT22;6871;51.34740610;4.31323160;2023-03-01T10:20:46;16.70;56.20
13600;DHT22;6871;51.34740610;4.31323160;2023-03-01T10:23:16;16.80;56.20
13600;DHT22;6871;51.34740610;4.31323160;2023-03-01T10:25:50;16.80;56.20
13600;DHT22;6871;51.34740610;4.31323160;2023-03-01T10:28:23;16.80;56.40
13600;DHT22;6871;51.34740610;4.31323160;2023-03-01T10:30:51;16.80;56.40
13600;DHT22;6871;51.34740610;4.31323160;2023-03-01T10:33:24;16.80;55.90
13600;DHT22;6871;51.34740610;4.31323160;2023-03-01T10:35:54;16.90;55.30
13600;DHT22;6871;51.34740610;4.31323160;2023-03-01T10:38:24;16.90;54.60
13600;DHT22;6871;51.34740610;4.31323160;2023-03-01T10:40:55;16.80;53.70
13600;DHT22;6871;51.34740610;4.31323160;2023-03-01T10:43:27;16.90;54.20
13600;DHT22;6871;51.34740610;4.31323160;2023-03-01T10:45:57;16.90;55.50
13600;DHT22;6871;51.34740610;4.31323160;2023-03-01T10:48:27;16.90;55.40
13600;DHT22;6871;51.34740610;4.31323160;2023-03-01T10:51:07;16.90;56.00
13600;DHT22;6871;51.34740610;4.31323160;2023-03-01T10:53:38;16.90;56.40
13600;DHT22;6871;51.34740610;4.31323160;2023-03-01T10:56:09;17.00;56.50
13600;DHT22;6871;51.34740610;4.31323160;2023-03-01T10:58:41;17.00;56.20
13600;DHT22;6871;51.34740610;4.31323160;2023-03-01T11:01:27;17.00;56.40
13600;DHT22;6871;51.34740610;4.31323160;2023-03-01T11:04:11;17.00;56.50
13600;DHT22;6871;51.34740610;4.31323160;2023-03-01T11:06:42;17.00;56.40
13600;DHT22;6871;51.34740610;4.31323160;2023-03-01T11:09:17;17.00;56.50
13600;DHT22;6871;51.34740610;4.31323160;2023-03-01T11:11:47;17.00;56.70
13600;DHT22;6871;51.34740610;4.31323160;2023-03-01T11:14:20;17.00;56.60
13600;DHT22;6871;51.34740610;4.31323160;2023-03-01T11:16:58;17.00;56.50
13600;DHT22;6871;51.34740610;4.31323160;2023-03-01T11:19:28;17.00;56.50
13600;DHT22;6871;51.34740610;4.31323160;2023-03-01T11:22:03;17.00;56.50
13600;DHT22;6871;51.34740610;4.31323160;2023-03-01T11:24:40;17.00;56.80
13600;DHT22;6871;51.34740610;4.31323160;2023-03-01T11:27:17;17.00;56.30
13600;DHT22;6871;51.34740610;4.31323160;2023-03-01T11:29:51;17.00;57.00
13600;DHT22;6871;51.34740610;4.31323160;2023-03-01T11:32:23;17.00;57.00
13600;DHT22;6871;51.34740610;4.31323160;2023-03-01T11:34:56;17.00;57.00
13600;DHT22;6871;51.34740610;4.31323160;2023-03-01T11:37:32;17.00;57.00
13600;DHT22;6871;51.34740610;4.31323160;2023-03-01T11:40:10;17.10;57.20
13600;DHT22;6871;51.34740610;4.31323160;2023-03-01T11:42:48;17.10;56.90
13600;DHT22;6871;51.34740610;4.31323160;2023-03-01T11:45:17;17.10;57.10
13600;DHT22;6871;51.34740610;4.31323160;2023-03-01T11:47:58;17.00;57.20
13600;DHT22;6871;51.34740610;4.31323160;2023-03-01T11:50:30;17.10;57.40
13600;DHT22;6871;51.34740610;4.31323160;2023-03-01T11:53:11;17.10;57.60
13600;DHT22;6871;51.34740610;4.31323160;2023-03-01T11:55:47;17.10;57.70
13600;DHT22;6871;51.34740610;4.31323160;2023-03-01T11:58:26;17.10;57.70
13600;DHT22;6871;51.34740610;4.31323160;2023-03-01T12:01:23;17.10;57.90
13600;DHT22;6871;51.34740610;4.31323160;2023-03-01T12:07:06;17.00;58.00
13600;DHT22;6871;51.34740610;4.31323160;2023-03-01T12:09:51;17.00;58.10
13600;DHT22;6871;51.34740610;4.31323160;2023-03-01T12:12:34;17.00;58.20
13600;DHT22;6871;51.34740610;4.31323160;2023-03-01T12:21:38;17.00;58.30
13600;DHT22;6871;51.34740610;4.31323160;2023-03-01T12:24:16;17.00;58.50
13600;DHT22;6871;51.34740610;4.31323160;2023-03-01T12:26:50;17.00;58.50
13600;DHT22;6871;51.34740610;4.31323160;2023-03-01T12:29:27;17.00;58.50
13600;DHT22;6871;51.34740610;4.31323160;2023-03-01T12:32:13;17.00;58.60
13600;DHT22;6871;51.34740610;4.31323160;2023-03-01T12:35:09;17.00;58.60
13600;DHT22;6871;51.34740610;4.31323160;2023-03-01T12:37:52;16.90;58.60
13600;DHT22;6871;51.34740610;4.31323160;2023-03-01T12:40:43;16.90;58.90
13600;DHT22;6871;51.34740610;4.31323160;2023-03-01T12:43:22;16.90;58.80
13600;DHT22;6871;51.34740610;4.31323160;2023-03-01T12:46:21;16.80;58.80
13600;DHT22;6871;51.34740610;4.31323160;2023-03-01T12:48:55;16.80;59.00
13600;DHT22;6871;51.34740610;4.31323160;2023-03-01T12:51:28;16.80;59.00
13600;DHT22;6871;51.34740610;4.31323160;2023-03-01T12:54:00;16.80;59.20
13600;DHT22;6871;51.34740610;4.31323160;2023-03-01T12:56:32;16.70;59.10
13600;DHT22;6871;51.34740610;4.31323160;2023-03-01T12:59:07;16.70;59.20
13600;DHT22;6871;51.34740610;4.31323160;2023-03-01T13:01:45;16.70;59.20
13600;DHT22;6871;51.34740610;4.31323160;2023-03-01T13:07:19;16.70;59.50
13600;DHT22;6871;51.34740610;4.31323160;2023-03-01T13:09:54;16.70;59.60
13600;DHT22;6871;51.34740610;4.31323160;2023-03-01T13:12:50;16.60;59.50
13600;DHT22;6871;51.34740610;4.31323160;2023-03-01T13:15:30;16.60;59.70
13600;DHT22;6871;51.34740610;4.31323160;2023-03-01T13:18:02;16.60;59.80
13600;DHT22;6871;51.34740610;4.31323160;2023-03-01T13:20:34;16.60;59.90
13600;DHT22;6871;51.34740610;4.31323160;2023-03-01T13:23:09;16.50;60.00
13600;DHT22;6871;51.34740610;4.31323160;2023-03-01T13:26:08;16.50;59.70
13600;DHT22;6871;51.34740610;4.31323160;2023-03-01T13:28:54;16.50;60.00
13600;DHT22;6871;51.34740610;4.31323160;2023-03-01T13:32:06;16.50;60.00
13600;DHT22;6871;51.34740610;4.31323160;2023-03-01T13:34:47;16.50;60.40
13600;DHT22;6871;51.34740610;4.31323160;2023-03-01T13:37:28;16.50;60.30
13600;DHT22;6871;51.34740610;4.31323160;2023-03-01T13:40:00;16.50;60.30
13600;DHT22;6871;51.34740610;4.31323160;2023-03-01T13:42:41;16.50;60.30
13600;DHT22;6871;51.34740610;4.31323160;2023-03-01T13:45:38;16.50;60.50
13600;DHT22;6871;51.34740610;4.31323160;2023-03-01T13:48:15;16.50;61.00
13600;DHT22;6871;51.34740610;4.31323160;2023-03-01T13:50:47;16.40;61.70
13600;DHT22;6871;51.34740610;4.31323160;2023-03-01T13:53:21;16.40;61.40
13600;DHT22;6871;51.34740610;4.31323160;2023-03-01T13:55:54;16.40;61.00
13600;DHT22;6871;51.34740610;4.31323160;2023-03-01T13:58:25;16.40;60.90
13600;DHT22;6871;51.34740610;4.31323160;2023-03-01T14:01:00;16.40;61.10
13600;DHT22;6871;51.34740610;4.31323160;2023-03-01T14:03:31;16.40;60.70
13600;DHT22;6871;51.34740610;4.31323160;2023-03-01T14:06:04;16.40;60.70
13600;DHT22;6871;51.34740610;4.31323160;2023-03-01T14:08:37;16.40;60.80
13600;DHT22;6871;51.34740610;4.31323160;2023-03-01T14:20:19;16.40;61.10
13600;DHT22;6871;51.34740610;4.31323160;2023-03-01T14:22:51;16.40;61.20
13600;DHT22;6871;51.34740610;4.31323160;2023-03-01T14:25:28;16.30;61.50